Terminal Aerodrome Forecast
Issued by NWS

Home | Current Version | Previous Version | Text Only | Print | Product List | Glossary On
Versions: 1 2 3 4 5 6 7 8 9 10 11 12 13 14 15 16 17 18 19 20 21 22 23 24 25 26 27 28 29 30 31
351
FTUS43 KDVN 280214 AAA
TAFCID
TAF AMD
KCID 280214Z 2802/2824 01007KT P6SM BKN060 OVC100
     FM280900 34006KT 4SM BR BKN025
     FM281400 30008KT P6SM BKN120=

USA.gov is the U.S. government's official web portal to all federal, state and local government web resources and services.